createdAt,value
2022-12-20T00:03:46.359Z,26.30
2022-12-20T00:08:55.705Z,28.23
2022-12-20T00:14:00.579Z,27.02
2022-12-20T00:19:06.959Z,25.00
2022-12-20T00:24:11.847Z,29.80
2022-12-20T00:29:16.651Z,28.75
2022-12-20T00:34:21.026Z,30.65
2022-12-20T00:39:24.444Z,26.42
2022-12-20T00:44:30.177Z,24.05
2022-12-20T00:49:34.102Z,33.00
2022-12-20T00:54:37.586Z,28.15
2022-12-20T00:59:42.397Z,24.73
2022-12-20T01:04:46.117Z,27.85
2022-12-20T01:09:49.543Z,33.70
2022-12-20T01:14:54.570Z,28.98
2022-12-20T01:19:58.261Z,28.83
2022-12-20T01:25:01.724Z,28.23
2022-12-20T01:30:07.445Z,28.58
2022-12-20T01:35:11.107Z,25.55
2022-12-20T01:40:15.007Z,27.23
2022-12-20T01:45:28.383Z,26.08
2022-12-20T01:55:35.774Z,28.30
2022-12-20T02:00:40.642Z,26.13
2022-12-20T02:05:47.002Z,29.05
2022-12-20T02:11:06.446Z,24.80
2022-12-20T02:16:16.053Z,29.48
2022-12-20T02:21:27.929Z,27.08
2022-12-20T02:26:59.286Z,31.15
2022-12-20T02:32:09.906Z,30.55
2022-12-20T02:37:14.811Z,30.85
2022-12-20T02:42:22.293Z,26.48
2022-12-20T02:47:32.855Z,25.25
2022-12-20T02:52:37.457Z,28.08
2022-12-20T02:57:47.771Z,29.45
2022-12-20T03:03:11.305Z,29.88
2022-12-20T03:08:14.829Z,28.55
2022-12-20T03:13:18.626Z,28.42
2022-12-20T03:18:23.486Z,35.53
2022-12-20T03:23:26.869Z,29.30
2022-12-20T03:28:30.487Z,26.67
2022-12-20T03:33:35.334Z,27.83
2022-12-20T03:38:38.817Z,28.27
2022-12-20T03:43:42.260Z,23.52
2022-12-20T03:48:47.341Z,28.52
2022-12-20T03:53:50.905Z,24.77
2022-12-20T03:58:54.328Z,23.73
2022-12-20T04:03:59.245Z,28.75
2022-12-20T04:09:02.773Z,23.85
2022-12-20T04:14:06.414Z,29.80
2022-12-20T04:19:12.063Z,24.30
2022-12-20T04:24:15.514Z,30.42
2022-12-20T04:29:19.421Z,28.83
2022-12-20T04:34:24.216Z,26.58
2022-12-20T04:39:27.711Z,32.10
2022-12-20T04:44:31.107Z,27.30
2022-12-20T04:49:37.459Z,32.55
2022-12-20T04:54:41.133Z,28.45
2022-12-20T04:59:44.624Z,30.95
2022-12-20T05:04:49.401Z,29.98
2022-12-20T05:09:52.844Z,33.17
2022-12-20T05:14:56.555Z,32.80
2022-12-20T05:20:01.460Z,30.90
2022-12-20T05:25:23.171Z,34.95
2022-12-20T05:30:27.181Z,32.40
2022-12-20T05:35:31.975Z,38.22
2022-12-20T05:40:35.595Z,36.05
2022-12-20T05:45:39.311Z,29.83
2022-12-20T05:50:45.718Z,33.80
2022-12-20T05:55:51.164Z,37.78
2022-12-20T06:00:54.643Z,32.05
2022-12-20T06:05:59.493Z,32.67
2022-12-20T06:11:05.022Z,36.83
2022-12-20T06:16:08.741Z,36.58
2022-12-20T06:21:13.512Z,39.35
2022-12-20T06:26:16.942Z,35.17
2022-12-20T06:31:28.652Z,36.17
2022-12-20T06:36:44.627Z,35.97
2022-12-20T06:41:51.813Z,34.65
2022-12-20T06:47:04.391Z,34.70
2022-12-20T06:52:11.250Z,38.42
2022-12-20T06:57:14.907Z,37.72
2022-12-20T07:02:24.090Z,33.80
2022-12-20T07:07:40.669Z,36.28
2022-12-20T07:12:51.027Z,38.75
2022-12-20T07:17:56.787Z,39.28
2022-12-20T07:23:01.698Z,34.25
2022-12-20T07:28:05.558Z,35.55
2022-12-20T07:33:08.974Z,33.42
2022-12-20T07:38:14.323Z,35.92
2022-12-20T07:43:17.833Z,33.10
2022-12-20T07:48:21.945Z,36.63
2022-12-20T07:53:29.920Z,41.53
2022-12-20T07:58:34.640Z,38.70
2022-12-20T08:03:42.728Z,41.10
2022-12-20T08:08:50.582Z,39.33
2022-12-20T08:13:57.750Z,37.30
2022-12-20T08:19:02.108Z,36.72
2022-12-20T08:24:08.307Z,35.40
2022-12-20T08:29:12.416Z,36.78
2022-12-20T08:34:15.873Z,36.78
2022-12-20T08:39:20.624Z,40.22
2022-12-20T08:44:24.612Z,37.30
2022-12-20T08:49:28.307Z,37.25
2022-12-20T08:54:33.738Z,37.38
2022-12-20T08:59:37.210Z,37.88
2022-12-20T09:04:40.872Z,36.45
2022-12-20T09:09:47.384Z,38.08
2022-12-20T09:14:50.831Z,37.38
2022-12-20T09:19:55.240Z,34.60
2022-12-20T09:25:00.049Z,38.40
2022-12-20T09:30:03.525Z,40.20
2022-12-20T09:35:07.725Z,41.90
2022-12-20T09:40:19.881Z,42.70
2022-12-20T09:45:28.960Z,35.85
2022-12-20T09:50:44.800Z,31.40
2022-12-20T09:55:56.121Z,34.72
2022-12-20T10:00:59.999Z,35.70
2022-12-20T10:06:14.902Z,36.42
2022-12-20T10:11:43.465Z,36.15
2022-12-20T10:16:54.506Z,36.30
2022-12-20T10:22:06.517Z,33.90
2022-12-20T10:27:16.998Z,36.03
2022-12-20T10:32:23.432Z,40.03
2022-12-20T10:37:27.358Z,40.75
2022-12-20T10:42:39.497Z,38.35
2022-12-20T10:47:46.138Z,40.85
2022-12-20T10:53:20.908Z,40.22
2022-12-20T10:58:35.278Z,38.30
2022-12-20T11:03:51.816Z,37.35
2022-12-20T11:09:00.710Z,41.63
2022-12-20T11:14:15.937Z,39.08
2022-12-20T11:19:32.542Z,39.35
2022-12-20T11:24:43.205Z,39.95
2022-12-20T11:30:11.168Z,33.95
2022-12-20T11:35:19.525Z,41.60
2022-12-20T11:40:30.337Z,40.10
2022-12-20T11:45:46.768Z,37.20
2022-12-20T11:51:02.790Z,41.40
2022-12-20T11:56:13.505Z,42.78
2022-12-20T12:01:22.454Z,37.17
2022-12-20T12:06:30.037Z,37.53
2022-12-20T12:17:09.689Z,34.92
2022-12-20T12:22:21.540Z,41.90
2022-12-20T12:27:30.529Z,34.50
2022-12-20T12:32:44.209Z,34.92
2022-12-20T12:38:18.635Z,34.30
2022-12-20T12:43:45.651Z,39.38
2022-12-20T12:48:57.581Z,34.20
2022-12-20T12:54:17.215Z,37.15
2022-12-20T12:59:37.667Z,39.45
2022-12-20T13:04:57.640Z,42.13
2022-12-20T13:10:02.347Z,45.22
2022-12-20T13:15:47.742Z,57.15
2022-12-20T13:21:24.462Z,45.75
2022-12-20T13:26:53.166Z,40.78
2022-12-20T13:31:56.706Z,47.10
2022-12-20T13:37:00.753Z,44.08
2022-12-20T13:42:18.935Z,35.45
2022-12-20T13:47:40.276Z,38.63
2022-12-20T13:52:48.348Z,38.08
2022-12-20T13:57:54.110Z,39.80
2022-12-20T14:03:02.263Z,35.67
2022-12-20T14:08:08.054Z,34.63
2022-12-20T14:13:24.742Z,34.85
2022-12-20T14:18:28.639Z,45.03
2022-12-20T14:23:38.138Z,45.78
2022-12-20T14:28:46.570Z,40.92
2022-12-20T14:33:50.526Z,41.85
2022-12-20T14:38:54.619Z,41.75
2022-12-20T14:44:02.536Z,44.65
2022-12-20T14:49:16.320Z,37.47
2022-12-20T14:54:56.873Z,37.85
2022-12-20T15:00:02.818Z,35.63
2022-12-20T15:05:31.643Z,38.42
2022-12-20T15:10:35.389Z,41.85
2022-12-20T15:15:40.427Z,43.90
2022-12-20T15:20:45.685Z,43.92
2022-12-20T15:25:49.767Z,36.80
2022-12-20T15:30:55.399Z,38.83
2022-12-20T15:35:58.885Z,35.72
2022-12-20T15:41:06.030Z,35.10
2022-12-20T15:46:13.267Z,36.63
2022-12-20T15:51:19.274Z,33.80
2022-12-20T15:56:24.588Z,34.42
2022-12-20T16:01:40.467Z,39.05
2022-12-20T16:06:46.091Z,33.45
2022-12-20T16:11:49.607Z,33.47
2022-12-20T16:16:54.350Z,39.78
2022-12-20T16:21:58.209Z,37.20
2022-12-20T16:27:01.696Z,36.45
2022-12-20T16:32:17.054Z,41.90
2022-12-20T16:37:20.724Z,40.42
2022-12-20T16:42:28.126Z,39.53
2022-12-20T16:47:33.792Z,44.80
2022-12-20T16:52:38.301Z,37.20
2022-12-20T16:57:42.160Z,35.30
2022-12-20T17:02:47.748Z,36.90
2022-12-20T17:07:51.908Z,41.90
2022-12-20T17:12:56.659Z,42.15
2022-12-20T17:18:01.452Z,41.50
2022-12-20T17:23:05.118Z,36.00
2022-12-20T17:28:08.861Z,39.13
2022-12-20T17:33:16.437Z,38.28
2022-12-20T17:38:19.868Z,40.97
2022-12-20T17:43:23.338Z,31.90
2022-12-20T17:48:33.210Z,36.80
2022-12-20T17:53:38.918Z,40.28
2022-12-20T17:58:42.975Z,41.78
2022-12-20T18:04:05.225Z,44.22
2022-12-20T18:09:15.038Z,45.53
2022-12-20T18:14:18.715Z,41.50
2022-12-20T18:19:23.568Z,47.42
2022-12-20T18:24:27.509Z,44.95
2022-12-20T18:29:31.346Z,51.17
2022-12-20T18:34:36.228Z,43.10
2022-12-20T18:39:39.722Z,58.72
2022-12-20T18:44:43.473Z,56.55
2022-12-20T18:49:48.238Z,49.42
2022-12-20T18:54:51.869Z,42.65
2022-12-20T18:59:55.326Z,37.75
2022-12-20T19:05:00.120Z,45.13
2022-12-20T19:10:04.076Z,46.10
2022-12-20T19:15:08.375Z,47.53
2022-12-20T19:20:13.607Z,46.42
2022-12-20T19:25:17.519Z,43.25
2022-12-20T19:30:21.352Z,39.28
2022-12-20T19:35:54.332Z,39.20
2022-12-20T19:40:54.243Z,43.85
2022-12-20T19:45:58.226Z,35.25
2022-12-20T19:51:10.011Z,36.60
2022-12-20T19:56:15.158Z,45.50
2022-12-20T20:01:19.977Z,34.75
2022-12-20T20:06:25.905Z,49.03
2022-12-20T20:11:30.307Z,37.35
2022-12-20T20:16:33.796Z,32.70
2022-12-20T20:21:39.340Z,44.22
2022-12-20T20:26:42.985Z,38.75
2022-12-20T20:31:46.481Z,44.25
2022-12-20T20:36:52.413Z,47.92
2022-12-20T20:41:55.855Z,35.08
2022-12-20T20:46:59.600Z,38.15
2022-12-20T20:52:04.545Z,39.60
2022-12-20T20:57:07.903Z,36.15
2022-12-20T21:02:14.212Z,39.53
2022-12-20T21:07:19.150Z,38.22
2022-12-20T21:12:23.365Z,43.22
2022-12-20T21:17:27.062Z,37.53
2022-12-20T21:22:32.197Z,43.35
2022-12-20T21:27:35.663Z,41.55
2022-12-20T21:32:39.497Z,36.65
2022-12-20T21:37:44.628Z,34.58
2022-12-20T21:42:48.076Z,37.17
2022-12-20T21:47:51.521Z,36.70
2022-12-20T21:52:56.398Z,34.35
2022-12-20T21:58:00.412Z,36.90
2022-12-20T22:03:04.000Z,31.08
2022-12-20T22:08:08.894Z,33.63
2022-12-20T22:13:13.375Z,35.67
2022-12-20T22:18:17.087Z,37.47
2022-12-20T22:23:21.875Z,37.58
2022-12-20T22:28:25.276Z,37.08
2022-12-20T22:33:28.742Z,33.40
2022-12-20T22:38:33.884Z,37.72
2022-12-20T22:43:37.935Z,38.67
2022-12-20T22:48:41.942Z,36.42
2022-12-20T22:53:47.929Z,35.67
2022-12-20T22:58:51.530Z,35.47
2022-12-20T23:03:55.068Z,32.97
2022-12-20T23:09:00.375Z,36.78
2022-12-20T23:14:23.052Z,34.13
2022-12-20T23:19:26.891Z,35.30
2022-12-20T23:24:31.702Z,40.42
2022-12-20T23:29:35.605Z,41.40
2022-12-20T23:34:39.034Z,38.00
2022-12-20T23:39:43.823Z,32.28
2022-12-20T23:44:47.617Z,34.95
2022-12-20T23:49:51.089Z,34.33
2022-12-20T23:54:57.135Z,30.50
